Time;durP1;ratioP1;P1;durP2;ratioP2;P2;SDS_P1;SDS_P2;PMS_P1;PMS_P2;Temp;Humidity;BMP_temperature;BMP_pressure;BME280_temperature;BME280_humidity;BME280_pressure;Samples;Min_cycle;Max_cycle;Signal;HPM_P1;HPM_P2
2023/12/21 00:00:11;;;;;;;2.60;1.90;;;;;;;3.05;79.66;95781.06;108132;1275;26568;-79
2023/12/21 00:03:00;;;;;;;4.00;1.70;;;;;;;3.07;79.54;95780.66;108117;1277;22580;-79
2023/12/21 00:05:31;;;;;;;2.40;1.40;;;;;;;3.08;79.49;95780.08;108081;1261;22556;-77
2023/12/21 00:08:00;;;;;;;2.60;1.90;;;;;;;3.07;79.96;95775.95;108119;1281;22790;-79
2023/12/21 00:10:29;;;;;;;1.90;1.60;;;;;;;3.07;79.89;95780.71;108140;1278;22579;-79
2023/12/21 00:12:57;;;;;;;1.50;1.20;;;;;;;3.08;79.82;95776.10;108119;1282;23134;-79
2023/12/21 00:15:26;;;;;;;2.90;1.40;;;;;;;3.09;79.71;95770.77;108145;1275;22530;-79
2023/12/21 00:17:54;;;;;;;1.70;1.40;;;;;;;3.11;79.89;95765.05;108093;1281;22529;-79
2023/12/21 00:20:22;;;;;;;2.70;1.50;;;;;;;3.15;80.23;95765.17;108098;1265;22538;-79
2023/12/21 00:22:50;;;;;;;2.50;1.60;;;;;;;3.17;80.06;95767.69;108089;1281;22540;-79
2023/12/21 00:25:19;;;;;;;5.90;2.20;;;;;;;3.17;79.71;95757.06;108093;1281;22677;-79
2023/12/21 00:27:47;;;;;;;2.50;1.80;;;;;;;3.18;79.87;95760.84;108111;1274;23955;-79
2023/12/21 00:30:16;;;;;;;2.10;1.60;;;;;;;3.19;80.01;95757.96;108094;1281;22527;-79
2023/12/21 00:32:45;;;;;;;3.80;1.40;;;;;;;3.22;80.18;95754.67;108099;1281;22566;-79
2023/12/21 00:35:13;;;;;;;2.60;1.60;;;;;;;3.21;80.26;95757.02;108103;1281;22532;-79
2023/12/21 00:37:44;;;;;;;2.40;1.20;;;;;;;3.19;80.30;95749.79;108120;1281;22548;-79
2023/12/21 00:40:14;;;;;;;3.20;2.00;;;;;;;3.16;80.47;95751.88;108134;1275;24036;-79
2023/12/21 00:42:47;;;;;;;2.70;1.80;;;;;;;3.14;80.51;95752.59;108116;1275;25288;-79
2023/12/21 00:45:16;;;;;;;2.70;1.70;;;;;;;3.11;80.55;95750.64;108086;1279;25424;-79
2023/12/21 00:47:45;;;;;;;1.80;1.50;;;;;;;3.08;80.75;95754.27;108101;1279;24388;-79
2023/12/21 00:50:13;;;;;;;2.20;1.50;;;;;;;3.04;81.11;95756.49;108121;1281;22529;-79
2023/12/21 00:52:44;;;;;;;2.60;1.80;;;;;;;3.00;81.84;95752.61;108166;1281;25380;-79
2023/12/21 00:55:14;;;;;;;2.40;1.60;;;;;;;2.97;81.80;95750.39;108146;1281;25305;-79
2023/12/21 00:57:43;;;;;;;3.40;2.00;;;;;;;2.96;81.70;95749.86;108074;1278;22549;-79
2023/12/21 01:00:14;;;;;;;3.20;1.60;;;;;;;2.94;82.02;95752.16;108140;1281;22527;-79
2023/12/21 01:02:44;;;;;;;2.50;1.40;;;;;;;2.91;82.22;95747.66;108131;1281;22537;-79
2023/12/21 01:05:13;;;;;;;2.50;1.50;;;;;;;2.87;82.81;95746.59;108089;1281;22573;-79
2023/12/21 01:07:41;;;;;;;2.60;1.80;;;;;;;2.85;83.75;95740.09;108116;1281;24322;-79
2023/12/21 01:10:11;;;;;;;3.60;1.70;;;;;;;2.83;84.97;95717.61;108117;1275;22584;-79
2023/12/21 01:12:39;;;;;;;3.10;1.80;;;;;;;2.83;84.55;95733.70;108159;1281;22543;-79
2023/12/21 01:15:10;;;;;;;2.20;1.50;;;;;;;2.81;84.77;95732.81;108134;1281;24310;-79
2023/12/21 01:17:39;;;;;;;1.40;1.20;;;;;;;2.78;84.86;95728.03;108151;1281;24198;-79
2023/12/21 01:20:10;;;;;;;2.50;1.40;;;;;;;2.75;84.94;95726.23;108128;1281;24179;-79
2023/12/21 01:22:38;;;;;;;2.60;1.40;;;;;;;2.75;84.87;95720.58;108153;1281;22577;-79
2023/12/21 01:25:08;;;;;;;2.20;1.50;;;;;;;2.72;85.05;95720.98;108120;1281;26607;-79
2023/12/21 01:27:37;;;;;;;2.00;1.30;;;;;;;2.70;84.93;95715.63;108094;1274;23921;-79
2023/12/21 01:30:08;;;;;;;2.10;1.60;;;;;;;2.69;85.44;95710.43;108142;1281;24359;-79
2023/12/21 01:32:36;;;;;;;1.40;1.30;;;;;;;2.67;85.30;95720.25;108198;1275;22577;-79
2023/12/21 01:35:05;;;;;;;2.10;1.70;;;;;;;2.67;85.49;95716.64;108157;1281;23813;-79
2023/12/21 01:37:33;;;;;;;2.90;1.40;;;;;;;2.67;85.40;95705.91;108134;1281;24002;-79
2023/12/21 01:40:03;;;;;;;2.10;1.50;;;;;;;2.68;85.79;95702.48;108092;1273;22677;-79
2023/12/21 01:42:32;;;;;;;2.20;1.30;;;;;;;2.67;85.66;95701.63;108140;1281;24890;-79
2023/12/21 01:45:00;;;;;;;1.40;1.20;;;;;;;2.65;85.61;95694.70;108087;1267;25412;-79
2023/12/21 01:47:29;;;;;;;1.60;1.40;;;;;;;2.65;85.82;95699.30;108110;1279;22734;-78
2023/12/21 01:49:59;;;;;;;0.70;0.70;;;;;;;2.65;85.65;95697.05;108157;1281;22523;-79
2023/12/21 01:52:31;;;;;;;1.30;1.20;;;;;;;2.65;85.87;95692.96;108122;1281;24371;-79
2023/12/21 01:55:00;;;;;;;1.90;1.40;;;;;;;2.66;85.88;95685.86;108112;1279;24331;-79
2023/12/21 01:57:29;;;;;;;3.30;1.60;;;;;;;2.66;85.78;95685.65;108097;1275;23264;-79
2023/12/21 01:59:58;;;;;;;2.20;1.30;;;;;;;2.66;86.40;95683.81;108142;1275;23919;-79
2023/12/21 02:02:27;;;;;;;1.30;1.20;;;;;;;2.63;86.63;95682.96;108136;1281;22636;-79
2023/12/21 02:04:57;;;;;;;1.90;1.50;;;;;;;2.62;86.84;95684.47;108129;1281;22541;-79
2023/12/21 02:07:25;;;;;;;1.80;1.30;;;;;;;2.63;86.66;95688.81;108150;1275;23998;-78
2023/12/21 02:09:54;;;;;;;2.60;1.90;;;;;;;2.61;86.51;95687.08;108146;1275;22557;-78
2023/12/21 02:12:22;;;;;;;1.80;1.10;;;;;;;2.61;86.53;95687.77;108137;1281;24105;-79
2023/12/21 02:14:51;;;;;;;1.50;1.30;;;;;;;2.60;86.63;95682.57;108116;1280;22543;-79
2023/12/21 02:17:21;;;;;;;2.70;1.90;;;;;;;2.58;86.48;95680.77;108089;1279;22953;-79
2023/12/21 02:19:51;;;;;;;2.70;1.40;;;;;;;2.57;86.52;95679.00;108118;1281;25370;-79
2023/12/21 02:22:22;;;;;;;2.70;1.60;;;;;;;2.56;86.47;95669.27;108146;1259;23068;-79
2023/12/21 02:24:51;;;;;;;1.60;1.20;;;;;;;2.54;86.38;95662.27;108177;1274;22543;-79
2023/12/21 02:27:21;;;;;;;2.00;1.80;;;;;;;2.51;86.38;95658.22;108094;1274;23475;-79
2023/12/21 02:29:49;;;;;;;2.60;1.70;;;;;;;2.48;86.41;95655.53;108101;1274;24233;-79
2023/12/21 02:32:18;;;;;;;2.50;1.20;;;;;;;2.46;86.71;95654.42;108087;1281;25028;-79
2023/12/21 02:34:46;;;;;;;3.80;2.10;;;;;;;2.46;87.04;95652.48;108106;1281;22527;-79
2023/12/21 02:37:18;;;;;;;1.40;1.20;;;;;;;2.46;86.87;95642.86;108076;1281;25443;-79
2023/12/21 02:39:47;;;;;;;3.00;1.40;;;;;;;2.46;87.03;95638.77;108168;1281;22670;-79
2023/12/21 02:42:15;;;;;;;1.50;1.30;;;;;;;2.45;86.88;95637.83;108141;1281;27092;-79
2023/12/21 02:44:44;;;;;;;2.60;1.50;;;;;;;2.45;87.10;95632.02;108142;1280;22671;-79
2023/12/21 02:47:12;;;;;;;1.20;1.10;;;;;;;2.44;87.14;95639.49;108122;1274;25270;-79
2023/12/21 02:49:40;;;;;;;1.20;0.90;;;;;;;2.44;87.01;95632.23;108131;1281;22536;-79
2023/12/21 02:52:09;;;;;;;2.20;1.60;;;;;;;2.44;87.38;95627.15;108117;1274;22526;-79
2023/12/21 02:54:37;;;;;;;2.10;1.50;;;;;;;2.43;87.41;95620.83;108114;1264;25547;-79
2023/12/21 02:57:08;;;;;;;2.00;1.60;;;;;;;2.42;87.37;95621.02;108114;1281;25277;-79
2023/12/21 02:59:36;;;;;;;1.20;0.80;;;;;;;2.42;87.20;95616.63;108109;1274;22642;-79
2023/12/21 03:02:06;;;;;;;1.20;1.10;;;;;;;2.41;87.12;95613.80;108082;1282;23800;-79
2023/12/21 03:04:36;;;;;;;1.40;1.20;;;;;;;2.40;87.28;95607.46;108093;1281;22649;-79
2023/12/21 03:07:05;;;;;;;2.10;0.90;;;;;;;2.38;87.51;95599.38;108102;1281;24353;-79
2023/12/21 03:09:34;;;;;;;1.70;0.90;;;;;;;2.36;87.49;95600.30;108020;1274;134255;-79
2023/12/21 03:12:02;;;;;;;2.10;1.30;;;;;;;2.34;87.92;95584.60;108081;1275;22674;-79
2023/12/21 03:14:33;;;;;;;1.50;0.90;;;;;;;2.32;87.90;95592.70;108089;1274;22729;-79
2023/12/21 03:17:01;;;;;;;1.60;1.20;;;;;;;2.30;88.00;95589.76;108117;1281;26785;-79
2023/12/21 03:19:31;;;;;;;1.60;1.00;;;;;;;2.29;87.75;95590.39;108127;1274;22526;-79
2023/12/21 03:21:59;;;;;;;1.00;0.90;;;;;;;2.28;87.57;95580.33;108135;1275;22572;-79
2023/12/21 03:24:28;;;;;;;1.60;1.00;;;;;;;2.26;87.46;95574.04;108128;1280;25281;-79
2023/12/21 03:26:58;;;;;;;1.10;0.90;;;;;;;2.25;87.45;95567.63;108066;1282;22552;-79
2023/12/21 03:29:27;;;;;;;0.80;0.70;;;;;;;2.26;87.74;95558.67;108115;1281;23249;-79
2023/12/21 03:31:56;;;;;;;1.20;1.00;;;;;;;2.26;87.47;95549.83;108069;1281;22511;-79
2023/12/21 03:34:25;;;;;;;1.30;1.00;;;;;;;2.22;87.42;95544.08;108154;1274;22530;-79
2023/12/21 03:36:56;;;;;;;2.20;1.10;;;;;;;2.22;87.47;95539.58;108126;1275;22554;-79
2023/12/21 03:39:24;;;;;;;1.50;1.00;;;;;;;2.22;87.54;95530.59;108138;1281;24325;-80
2023/12/21 03:41:52;;;;;;;1.10;0.90;;;;;;;2.19;87.34;95527.55;108110;1281;23926;-80
2023/12/21 03:44:21;;;;;;;1.10;1.00;;;;;;;2.17;87.68;95514.84;108127;1281;22938;-79
2023/12/21 03:46:49;;;;;;;1.20;0.80;;;;;;;2.15;87.57;95511.48;108134;1281;22566;-80
2023/12/21 03:49:18;;;;;;;1.20;1.10;;;;;;;2.12;87.52;95508.05;108153;1274;23757;-79
2023/12/21 03:51:46;;;;;;;2.20;0.90;;;;;;;2.08;87.28;95499.75;108150;1279;25500;-80
2023/12/21 03:54:14;;;;;;;0.80;0.60;;;;;;;2.05;87.56;95500.05;108127;1281;22536;-80
2023/12/21 03:56:42;;;;;;;2.00;1.50;;;;;;;2.03;87.51;95496.95;108121;1281;22526;-80
2023/12/21 03:59:12;;;;;;;1.60;1.40;;;;;;;2.02;87.67;95492.40;108134;1279;22523;-80
2023/12/21 04:01:41;;;;;;;1.20;1.00;;;;;;;2.01;87.83;95492.35;108108;1281;22537;-80
2023/12/21 04:04:09;;;;;;;1.30;1.30;;;;;;;2.02;87.79;95480.11;108116;1275;22602;-80
2023/12/21 04:06:39;;;;;;;1.10;0.90;;;;;;;2.02;87.64;95485.61;108103;1275;24197;-80
2023/12/21 04:09:09;;;;;;;1.90;1.20;;;;;;;2.02;87.56;95487.34;108134;1274;22526;-80
2023/12/21 04:11:38;;;;;;;1.30;1.20;;;;;;;2.00;87.49;95486.34;108127;1281;22546;-79
2023/12/21 04:14:06;;;;;;;1.40;1.10;;;;;;;1.98;87.62;95473.36;108149;1281;24159;-80
2023/12/21 04:16:35;;;;;;;3.90;1.10;;;;;;;2.01;87.57;95471.91;108145;1275;24279;-79
2023/12/21 04:19:04;;;;;;;1.10;0.90;;;;;;;2.01;87.24;95467.57;108174;1281;22560;-79
2023/12/21 04:21:32;;;;;;;1.50;0.90;;;;;;;1.98;87.43;95462.58;108197;1274;25495;-79
2023/12/21 04:24:01;;;;;;;1.40;1.00;;;;;;;1.93;87.27;95463.38;108157;1281;23716;-79
2023/12/21 04:26:29;;;;;;;2.10;1.20;;;;;;;1.91;87.34;95454.58;108125;1281;26603;-79
2023/12/21 04:29:00;;;;;;;1.30;0.90;;;;;;;1.89;87.41;95453.64;108115;1281;25403;-79
2023/12/21 04:31:28;;;;;;;2.60;1.10;;;;;;;1.87;87.19;95458.48;108134;1281;25379;-79
2023/12/21 04:33:59;;;;;;;2.30;1.30;;;;;;;1.86;87.29;95454.35;108144;1281;22496;-79
2023/12/21 04:36:28;;;;;;;2.90;1.30;;;;;;;1.84;87.45;95446.86;108069;1281;22998;-79
2023/12/21 04:38:57;;;;;;;1.20;0.90;;;;;;;1.82;87.38;95443.59;108135;1281;22527;-79
2023/12/21 04:41:27;;;;;;;2.00;1.20;;;;;;;1.80;87.23;95431.52;108119;1277;22570;-79
2023/12/21 04:43:58;;;;;;;1.50;0.80;;;;;;;1.76;87.36;95415.61;108122;1274;22563;-79
2023/12/21 04:46:27;;;;;;;3.60;1.60;;;;;;;1.71;87.41;95410.89;108108;1281;24218;-79
2023/12/21 04:48:58;;;;;;;2.50;1.40;;;;;;;1.70;87.70;95409.10;108077;1274;22649;-79
2023/12/21 04:51:26;;;;;;;1.00;0.80;;;;;;;1.68;87.54;95395.05;108117;1281;22488;-79
2023/12/21 04:53:55;;;;;;;3.90;1.50;;;;;;;1.64;87.58;95405.23;108160;1281;22535;-79
2023/12/21 04:56:23;;;;;;;1.30;1.20;;;;;;;1.63;87.57;95398.48;108088;1281;24256;-79
2023/12/21 04:58:52;;;;;;;3.40;1.70;;;;;;;1.60;87.49;95401.19;108119;1277;25503;-79
2023/12/21 05:01:20;;;;;;;2.70;1.40;;;;;;;1.60;87.73;95394.77;108129;1281;25290;-80
2023/12/21 05:03:48;;;;;;;3.00;1.60;;;;;;;1.63;87.97;95397.39;108103;1279;22544;-79
2023/12/21 05:06:17;;;;;;;1.80;1.10;;;;;;;1.65;87.75;95392.70;108135;1281;22485;-79
2023/12/21 05:08:46;;;;;;;1.40;1.00;;;;;;;1.64;87.61;95390.29;108141;1281;22530;-80
2023/12/21 05:11:16;;;;;;;1.80;1.10;;;;;;;1.63;87.62;95387.88;108117;1281;23425;-79
2023/12/21 05:13:45;;;;;;;1.50;1.40;;;;;;;1.63;87.57;95398.33;108156;1281;25320;-79
2023/12/21 05:16:13;;;;;;;2.60;1.60;;;;;;;1.62;87.75;95402.34;108092;1281;22523;-79
2023/12/21 05:18:41;;;;;;;2.90;1.70;;;;;;;1.57;87.80;95400.86;108113;1281;22711;-79
2023/12/21 05:21:10;;;;;;;2.30;1.60;;;;;;;1.58;87.89;95394.23;108108;1281;23250;-79
2023/12/21 05:23:39;;;;;;;2.00;1.20;;;;;;;1.60;87.75;95383.89;108137;1281;22577;-79
2023/12/21 05:26:11;;;;;;;1.70;1.30;;;;;;;1.58;87.80;95375.27;108104;1281;26060;-79
2023/12/21 05:28:42;;;;;;;4.10;1.30;;;;;;;1.65;87.78;95358.21;108129;1281;24170;-78
2023/12/21 05:31:10;;;;;;;1.80;1.20;;;;;;;1.64;87.83;95359.78;108103;1274;22527;-78
2023/12/21 05:33:39;;;;;;;1.40;1.30;;;;;;;1.64;87.83;95362.50;108133;1277;25008;-79
2023/12/21 05:36:21;;;;;;;2.20;1.30;;;;;;;1.67;87.87;95349.18;108095;1274;22533;-78
2023/12/21 05:38:49;;;;;;;2.40;1.20;;;;;;;1.65;87.39;95342.70;108120;1275;22810;-79
2023/12/21 05:41:18;;;;;;;1.20;1.10;;;;;;;1.63;87.47;95351.27;108115;1282;22558;-79
2023/12/21 05:43:46;;;;;;;2.50;1.30;;;;;;;1.65;87.63;95338.73;108112;1275;22536;-79
2023/12/21 05:46:16;;;;;;;4.40;2.40;;;;;;;1.67;87.63;95330.59;108114;1281;22516;-79
2023/12/21 05:48:44;;;;;;;2.90;1.20;;;;;;;1.68;87.61;95323.96;108132;1281;22847;-79
2023/12/21 05:51:13;;;;;;;1.80;1.30;;;;;;;1.71;87.47;95323.11;108090;1279;22754;-79
2023/12/21 05:53:41;;;;;;;1.90;1.20;;;;;;;1.72;87.30;95323.00;108112;1281;22547;-78
2023/12/21 05:56:09;;;;;;;1.80;1.10;;;;;;;1.72;87.29;95320.23;108117;1281;22652;-79
2023/12/21 05:58:38;;;;;;;1.20;0.90;;;;;;;1.74;87.24;95312.20;108101;1275;25677;-79
2023/12/21 06:01:08;;;;;;;2.60;1.30;;;;;;;1.75;87.04;95302.02;108128;1281;22622;-79
2023/12/21 06:03:37;;;;;;;1.80;1.00;;;;;;;1.74;86.91;95294.64;108107;1274;23706;-79
2023/12/21 06:06:08;;;;;;;2.10;1.20;;;;;;;1.74;86.93;95297.88;108109;1281;22529;-79
2023/12/21 06:08:40;;;;;;;2.70;1.80;;;;;;;1.77;86.97;95293.76;108139;1281;25442;-79
2023/12/21 06:11:09;;;;;;;4.00;2.10;;;;;;;1.80;87.03;95291.67;108124;1281;22530;-79
2023/12/21 06:13:37;;;;;;;3.40;1.70;;;;;;;1.82;86.76;95285.30;108123;1280;22536;-79
2023/12/21 06:16:11;;;;;;;1.50;1.30;;;;;;;1.80;86.55;95274.44;108116;1282;22508;-79
2023/12/21 06:18:41;;;;;;;1.60;1.20;;;;;;;1.79;86.54;95270.61;108134;1274;26413;-79
2023/12/21 06:21:09;;;;;;;2.10;0.90;;;;;;;1.82;86.61;95261.32;108108;1281;22542;-79
2023/12/21 06:23:38;;;;;;;3.20;1.60;;;;;;;1.92;86.74;95265.29;108139;1274;22533;-79
2023/12/21 06:26:07;;;;;;;2.50;1.40;;;;;;;1.95;86.27;95262.67;108096;1282;22815;-79
2023/12/21 06:28:38;;;;;;;2.60;1.30;;;;;;;1.98;86.12;95261.86;108075;1281;22531;-80
2023/12/21 06:31:07;;;;;;;2.10;0.70;;;;;;;2.00;85.90;95257.11;108107;1282;22715;-80
2023/12/21 06:33:35;;;;;;;0.90;0.60;;;;;;;2.08;85.70;95250.55;108122;1281;22596;-79
2023/12/21 06:36:08;;;;;;;1.80;0.90;;;;;;;2.22;85.52;95262.33;108060;1280;22546;-79
2023/12/21 06:38:37;;;;;;;2.40;1.00;;;;;;;2.20;85.03;95256.89;108143;1266;24084;-80
2023/12/21 06:41:09;;;;;;;0.90;0.70;;;;;;;2.21;84.83;95259.25;108116;1274;25563;-80
2023/12/21 06:43:39;;;;;;;1.40;0.70;;;;;;;2.31;84.72;95254.57;108113;1274;24049;-80
2023/12/21 06:46:13;;;;;;;1.30;0.60;;;;;;;2.32;84.51;95245.31;108159;1281;25487;-79
2023/12/21 06:48:42;;;;;;;1.10;0.70;;;;;;;2.36;84.36;95252.01;108107;1274;22604;-80
2023/12/21 06:51:11;;;;;;;1.20;0.90;;;;;;;2.36;84.23;95247.71;108112;1281;26730;-80
2023/12/21 06:53:39;;;;;;;1.10;0.90;;;;;;;2.38;84.25;95243.54;108088;1281;22570;-80
2023/12/21 06:56:10;;;;;;;0.90;0.50;;;;;;;2.46;84.38;95236.23;108097;1281;22519;-79
2023/12/21 06:58:38;;;;;;;1.20;0.80;;;;;;;2.54;84.27;95242.15;108114;1281;23762;-79
2023/12/21 07:01:08;;;;;;;1.20;0.60;;;;;;;2.59;84.19;95241.05;108126;1281;22497;-79
2023/12/21 07:03:37;;;;;;;1.00;0.60;;;;;;;2.66;84.02;95238.12;108122;1281;22981;-79
2023/12/21 07:06:08;;;;;;;1.00;0.40;;;;;;;2.84;83.55;95229.85;108104;1281;27177;-79
2023/12/21 07:08:37;;;;;;;0.50;0.30;;;;;;;2.90;83.23;95229.73;108085;1279;24084;-79
2023/12/21 07:11:06;;;;;;;0.50;0.50;;;;;;;2.93;82.52;95226.17;108085;1281;25448;-80
2023/12/21 07:13:35;;;;;;;1.60;0.40;;;;;;;2.97;82.35;95238.02;108088;1274;23885;-79
2023/12/21 07:16:09;;;;;;;1.00;0.30;;;;;;;2.96;82.02;95239.54;108071;1279;22543;-79
2023/12/21 07:18:38;;;;;;;0.50;0.40;;;;;;;3.00;81.95;95236.91;108106;1281;26560;-80
2023/12/21 07:21:08;;;;;;;0.50;0.40;;;;;;;3.00;81.94;95233.29;108095;1271;22577;-79
2023/12/21 07:23:36;;;;;;;0.80;0.30;;;;;;;3.04;81.70;95237.95;108122;1281;22736;-79
2023/12/21 07:26:09;;;;;;;1.00;0.30;;;;;;;3.06;81.61;95242.86;108061;1281;23841;-79
2023/12/21 07:28:40;;;;;;;0.70;0.40;;;;;;;3.13;81.54;95235.80;108085;1281;22540;-80
2023/12/21 07:31:09;;;;;;;1.30;0.40;;;;;;;3.28;81.76;95241.20;108166;1282;25086;-79
2023/12/21 07:33:38;;;;;;;0.50;0.30;;;;;;;3.46;81.34;95218.90;108085;1281;24275;-79
2023/12/21 07:36:07;;;;;;;0.70;0.60;;;;;;;3.50;80.58;95234.70;108057;1281;22560;-79
2023/12/21 07:38:36;;;;;;;1.00;0.50;;;;;;;3.51;80.82;95237.73;108094;1281;22530;-79
2023/12/21 07:41:07;;;;;;;0.50;0.40;;;;;;;3.49;80.86;95241.88;108083;1281;24199;-79
2023/12/21 07:43:37;;;;;;;0.50;0.50;;;;;;;3.43;80.77;95238.25;108079;1281;22538;-79
2023/12/21 07:46:08;;;;;;;1.70;0.70;;;;;;;3.35;80.82;95239.61;108078;1277;25378;-79
2023/12/21 07:48:36;;;;;;;0.60;0.40;;;;;;;3.30;80.72;95240.84;108092;1275;22551;-80
2023/12/21 07:51:06;;;;;;;0.40;0.20;;;;;;;3.25;80.96;95236.98;108106;1281;22542;-79
2023/12/21 07:53:35;;;;;;;0.40;0.40;;;;;;;3.20;81.43;95243.63;108137;1281;22529;-79
2023/12/21 07:56:11;;;;;;;0.40;0.30;;;;;;;3.12;82.31;95240.98;108101;1280;23877;-80
2023/12/21 07:58:39;;;;;;;0.60;0.30;;;;;;;3.11;82.86;95235.17;108106;1281;22521;-79
2023/12/21 08:01:08;;;;;;;0.30;0.30;;;;;;;3.07;83.58;95233.38;108136;1281;23782;-79
2023/12/21 08:03:38;;;;;;;0.40;0.30;;;;;;;3.07;84.66;95232.02;108083;1280;26406;-80
2023/12/21 08:06:07;;;;;;;0.50;0.30;;;;;;;3.07;84.59;95235.59;108091;1270;22781;-79
2023/12/21 08:08:35;;;;;;;0.70;0.30;;;;;;;3.08;84.75;95235.37;108083;1275;22529;-79
2023/12/21 08:11:04;;;;;;;0.20;0.10;;;;;;;3.06;85.27;95231.91;108106;1282;26482;-79
2023/12/21 08:13:32;;;;;;;0.40;0.40;;;;;;;3.05;85.37;95229.30;108104;1280;21810;-79
2023/12/21 08:16:01;;;;;;;0.50;0.20;;;;;;;3.05;85.87;95225.54;108089;1282;23985;-79
2023/12/21 08:18:30;;;;;;;1.20;0.40;;;;;;;3.03;85.79;95227.38;108123;1281;22539;-79
2023/12/21 08:20:58;;;;;;;;;;;;;;;3.03;86.33;95210.10;108131;1277;22522;-79
2023/12/21 08:23:27;;;;;;;0.30;0.30;;;;;;;3.05;86.32;95224.12;108074;1274;25597;-79
2023/12/21 08:25:58;;;;;;;0.60;0.40;;;;;;;3.04;86.30;95200.36;108069;1282;22534;-78
2023/12/21 08:28:29;;;;;;;0.50;0.50;;;;;;;3.03;86.48;95208.89;108113;1275;22534;-79
2023/12/21 08:30:59;;;;;;;1.20;0.60;;;;;;;3.06;86.52;95198.83;108209;1281;22521;-79
2023/12/21 08:33:28;;;;;;;0.30;0.30;;;;;;;3.05;86.76;95184.02;108100;1281;25033;-79
2023/12/21 08:35:59;;;;;;;0.50;0.30;;;;;;;3.01;87.08;95189.16;108070;1281;23030;-79
2023/12/21 08:38:28;;;;;;;1.00;0.50;;;;;;;2.99;87.45;95177.97;108124;1274;25257;-79
2023/12/21 08:40:56;;;;;;;0.40;0.20;;;;;;;2.99;87.50;95173.83;108109;1274;26249;-79
2023/12/21 08:43:25;;;;;;;0.60;0.50;;;;;;;2.94;87.83;95189.59;108089;1281;22562;-78
2023/12/21 08:45:54;;;;;;;0.90;0.40;;;;;;;2.88;88.21;95186.56;108084;1261;22653;-79
2023/12/21 08:48:22;;;;;;;0.60;0.30;;;;;;;2.83;88.38;95191.91;108150;1274;25260;-79
2023/12/21 08:50:51;;;;;;;1.00;0.70;;;;;;;2.75;88.72;95197.30;108129;1281;22552;-79
2023/12/21 08:53:20;;;;;;;0.70;0.40;;;;;;;2.66;88.86;95203.70;108114;1280;22542;-79
2023/12/21 08:55:49;;;;;;;2.70;2.00;;;;;;;2.59;89.54;95197.78;108091;1281;22560;-79
2023/12/21 08:58:18;;;;;;;1.20;0.70;;;;;;;2.53;89.48;95200.14;108088;1275;22795;-79
2023/12/21 09:00:46;;;;;;;0.70;0.40;;;;;;;2.48;90.10;95192.60;108105;1281;22527;-79
2023/12/21 09:03:16;;;;;;;1.80;1.10;;;;;;;2.39;90.76;95194.54;108114;1281;26403;-79
2023/12/21 09:05:45;;;;;;;1.10;0.80;;;;;;;2.31;90.69;95205.83;108075;1281;25451;-79
2023/12/21 09:08:13;;;;;;;1.00;0.80;;;;;;;2.23;90.73;95198.23;108098;1281;22590;-79
2023/12/21 09:10:42;;;;;;;1.00;0.70;;;;;;;2.12;90.80;95190.54;108108;1280;25171;-79
2023/12/21 09:13:18;;;;;;;1.00;0.60;;;;;;;2.02;91.33;95183.20;108115;1281;24274;-79
2023/12/21 09:15:47;;;;;;;2.30;0.90;;;;;;;1.91;91.48;95180.77;108110;1274;22535;-79
2023/12/21 09:18:18;;;;;;;1.80;1.10;;;;;;;1.86;91.51;95174.08;108068;1275;22696;-79
2023/12/21 09:20:47;;;;;;;3.70;2.40;;;;;;;1.85;91.91;95169.27;108101;1281;24200;-79
2023/12/21 09:23:16;;;;;;;0.70;0.70;;;;;;;1.88;92.37;95154.74;108127;1281;23342;-80
2023/12/21 09:25:45;;;;;;;2.10;1.10;;;;;;;1.85;92.93;95156.30;108105;1279;22619;-79
2023/12/21 09:28:13;;;;;;;5.00;1.50;;;;;;;1.86;93.29;95148.95;108071;1281;23019;-80
2023/12/21 09:30:44;;;;;;;2.60;1.70;;;;;;;1.90;93.33;95140.84;108062;1281;22540;-80
2023/12/21 09:33:14;;;;;;;1.90;1.10;;;;;;;1.86;93.46;95128.19;108103;1282;22542;-80
2023/12/21 09:35:42;;;;;;;2.40;1.00;;;;;;;1.78;93.63;95124.30;108060;1274;22544;-79
2023/12/21 09:38:11;;;;;;;1.50;0.70;;;;;;;1.75;94.39;95113.13;108071;1281;22556;-80
2023/12/21 09:40:40;;;;;;;1.40;0.80;;;;;;;1.73;95.02;95116.05;108129;1275;22645;-80
2023/12/21 09:43:16;;;;;;;3.00;1.30;;;;;;;1.74;95.00;95108.95;108089;1281;22546;-80
2023/12/21 09:45:47;;;;;;;1.80;1.20;;;;;;;1.78;95.05;95106.42;108095;1281;23916;-80
2023/12/21 09:48:17;;;;;;;1.60;1.00;;;;;;;1.85;95.30;95088.73;108082;1281;22534;-80
2023/12/21 09:50:46;;;;;;;1.30;1.20;;;;;;;1.95;95.36;95082.40;108069;1275;24212;-80
2023/12/21 09:53:16;;;;;;;2.50;1.40;;;;;;;2.03;95.86;95064.65;108089;1281;22530;-80
2023/12/21 09:55:46;;;;;;;1.70;1.20;;;;;;;2.12;96.58;95057.37;108107;1274;22635;-80
2023/12/21 09:58:15;;;;;;;1.80;1.40;;;;;;;2.23;96.60;95058.10;108135;1281;22751;-80
2023/12/21 10:00:42;;;;;;;;;;;;;;;2.32;96.52;95048.57;108154;1281;24141;-80
2023/12/21 10:03:11;;;;;;;2.90;0.70;;;;;;;2.36;96.36;95036.20;108131;1275;23866;-80
2023/12/21 10:05:42;;;;;;;2.50;1.40;;;;;;;2.44;96.04;95020.94;108098;1281;25408;-80
2023/12/21 10:08:11;;;;;;;3.50;1.90;;;;;;;2.43;95.71;95005.61;108096;1281;22549;-80
2023/12/21 10:10:40;;;;;;;1.90;1.40;;;;;;;2.40;95.43;95008.44;108062;1281;22593;-80
2023/12/21 10:13:11;;;;;;;2.70;1.40;;;;;;;2.36;95.54;94990.77;108080;1279;23975;-81
2023/12/21 10:15:42;;;;;;;2.30;1.40;;;;;;;2.34;95.69;94972.84;108073;1281;25315;-80
2023/12/21 10:18:10;;;;;;;2.10;1.10;;;;;;;2.34;95.96;94969.95;108088;1281;22594;-81
2023/12/21 10:20:39;;;;;;;1.60;1.00;;;;;;;2.38;95.73;94959.73;108094;1281;25871;-81
2023/12/21 10:23:09;;;;;;;2.10;1.50;;;;;;;2.42;95.69;94948.61;108118;1281;22555;-80
2023/12/21 10:25:38;;;;;;;1.50;1.10;;;;;;;2.47;95.63;94951.77;108071;1274;22537;-80
2023/12/21 10:28:08;;;;;;;1.90;1.10;;;;;;;2.52;95.54;94948.98;108111;1274;25233;-81
2023/12/21 10:30:38;;;;;;;1.90;1.10;;;;;;;2.58;95.51;94942.94;108084;1275;22724;-80
2023/12/21 10:33:08;;;;;;;3.30;1.90;;;;;;;2.65;95.38;94940.96;108103;1282;22587;-81
2023/12/21 10:35:38;;;;;;;1.70;1.30;;;;;;;2.74;95.29;94934.29;108074;1281;23797;-81
2023/12/21 10:38:08;;;;;;;2.60;1.00;;;;;;;2.82;95.13;94934.40;108105;1261;22560;-81
2023/12/21 10:40:39;;;;;;;2.90;1.20;;;;;;;2.86;94.98;94912.92;108132;1275;25257;-81
2023/12/21 10:43:08;;;;;;;1.30;1.10;;;;;;;2.90;94.76;94917.13;108113;1281;25324;-81
2023/12/21 10:45:36;;;;;;;1.50;0.90;;;;;;;2.95;94.59;94910.61;108095;1281;22499;-80
2023/12/21 10:48:13;;;;;;;1.00;0.80;;;;;;;3.00;94.30;94903.16;108140;1281;22541;-81
2023/12/21 10:50:45;;;;;;;1.20;0.70;;;;;;;3.07;94.07;94892.98;108079;1281;22575;-81
2023/12/21 10:53:14;;;;;;;1.70;0.80;;;;;;;3.15;93.85;94882.00;108112;1281;23876;-81
2023/12/21 10:55:43;;;;;;;1.00;0.80;;;;;;;3.20;93.59;94878.44;108076;1259;22547;-82
2023/12/21 10:58:13;;;;;;;1.80;1.00;;;;;;;3.25;93.24;94859.25;108082;1274;22560;-81
2023/12/21 11:00:43;;;;;;;1.30;0.90;;;;;;;3.32;93.11;94852.53;108129;1274;22555;-81
2023/12/21 11:03:16;;;;;;;1.70;0.70;;;;;;;3.42;92.88;94840.89;108093;1281;25419;-81
2023/12/21 11:05:45;;;;;;;1.40;0.90;;;;;;;3.49;92.64;94829.95;108081;1282;25364;-80
2023/12/21 11:08:14;;;;;;;0.60;0.60;;;;;;;3.55;92.32;94827.77;108102;1282;22533;-81
2023/12/21 11:10:44;;;;;;;1.70;0.90;;;;;;;3.58;91.62;94823.90;108098;1281;22990;-81
2023/12/21 11:13:12;;;;;;;0.90;0.50;;;;;;;3.62;91.28;94813.42;108120;1282;22522;-81
2023/12/21 11:15:42;;;;;;;1.10;0.60;;;;;;;3.66;90.98;94800.19;108090;1281;25488;-81
2023/12/21 11:18:16;;;;;;;1.30;0.70;;;;;;;3.70;90.66;94799.79;108115;1281;22538;-81
2023/12/21 11:20:48;;;;;;;0.50;0.40;;;;;;;3.73;90.29;94792.25;108152;1282;22541;-81
2023/12/21 11:23:19;;;;;;;0.60;0.40;;;;;;;3.76;89.68;94779.11;108099;1281;22562;-81
2023/12/21 11:25:56;;;;;;;0.90;0.50;;;;;;;3.74;89.15;94771.99;108130;1282;22517;-80
2023/12/21 11:28:28;;;;;;;1.30;0.40;;;;;;;3.72;88.21;94768.93;108117;1281;23215;-80
2023/12/21 11:31:03;;;;;;;0.90;0.60;;;;;;;3.72;88.28;94770.04;108154;1282;22526;-80
2023/12/21 11:33:32;;;;;;;0.50;0.20;;;;;;;3.74;88.16;94767.55;108129;1275;22556;-80
2023/12/21 11:36:02;;;;;;;0.80;0.30;;;;;;;3.73;87.41;94756.83;108054;1281;22584;-80
2023/12/21 11:38:45;;;;;;;1.90;0.90;;;;;;;3.71;87.07;94747.30;108113;1282;22543;-80
2023/12/21 11:41:15;;;;;;;0.70;0.40;;;;;;;3.73;86.44;94736.64;108097;1281;22710;-80
2023/12/21 11:44:00;;;;;;;1.00;0.40;;;;;;;3.78;86.68;94719.73;108100;1281;22826;-81